sensor_id;sensor_type;location;lat;lon;timestamp;P1;durP1;ratioP1;P2;durP2;ratioP2
39140;SDS011;24875;48.436;10.298;2022-07-24T00:00:31;11.63;;;7.13;;
39140;SDS011;24875;48.436;10.298;2022-07-24T00:02:58;11.23;;;6.75;;
39140;SDS011;24875;48.436;10.298;2022-07-24T00:05:24;11.95;;;7.25;;
39140;SDS011;24875;48.436;10.298;2022-07-24T00:07:51;14.90;;;7.10;;
39140;SDS011;24875;48.436;10.298;2022-07-24T00:10:17;15.18;;;7.50;;
39140;SDS011;24875;48.436;10.298;2022-07-24T00:12:44;12.43;;;7.68;;
39140;SDS011;24875;48.436;10.298;2022-07-24T00:15:12;15.43;;;8.43;;
39140;SDS011;24875;48.436;10.298;2022-07-24T00:17:39;15.77;;;8.30;;
39140;SDS011;24875;48.436;10.298;2022-07-24T00:20:06;14.27;;;8.10;;
39140;SDS011;24875;48.436;10.298;2022-07-24T00:22:34;14.07;;;8.52;;
39140;SDS011;24875;48.436;10.298;2022-07-24T00:25:00;13.35;;;8.05;;
39140;SDS011;24875;48.436;10.298;2022-07-24T00:27:27;17.63;;;8.15;;
39140;SDS011;24875;48.436;10.298;2022-07-24T00:29:53;15.45;;;8.73;;
39140;SDS011;24875;48.436;10.298;2022-07-24T00:32:21;16.42;;;8.65;;
39140;SDS011;24875;48.436;10.298;2022-07-24T00:34:47;13.18;;;8.25;;
39140;SDS011;24875;48.436;10.298;2022-07-24T00:37:14;22.27;;;8.60;;
39140;SDS011;24875;48.436;10.298;2022-07-24T00:39:40;16.33;;;9.15;;
39140;SDS011;24875;48.436;10.298;2022-07-24T00:42:07;17.95;;;8.90;;
39140;SDS011;24875;48.436;10.298;2022-07-24T00:44:33;16.90;;;8.93;;
39140;SDS011;24875;48.436;10.298;2022-07-24T00:47:00;18.45;;;10.02;;
39140;SDS011;24875;48.436;10.298;2022-07-24T00:49:28;17.95;;;10.07;;
39140;SDS011;24875;48.436;10.298;2022-07-24T00:51:54;20.45;;;9.32;;
39140;SDS011;24875;48.436;10.298;2022-07-24T00:54:21;15.38;;;9.10;;
39140;SDS011;24875;48.436;10.298;2022-07-24T00:56:49;20.65;;;9.27;;
39140;SDS011;24875;48.436;10.298;2022-07-24T00:59:18;17.10;;;9.07;;
39140;SDS011;24875;48.436;10.298;2022-07-24T01:01:44;15.43;;;8.50;;
39140;SDS011;24875;48.436;10.298;2022-07-24T01:04:11;14.68;;;8.70;;
39140;SDS011;24875;48.436;10.298;2022-07-24T01:06:41;16.65;;;9.48;;
39140;SDS011;24875;48.436;10.298;2022-07-24T01:09:08;18.33;;;8.93;;
39140;SDS011;24875;48.436;10.298;2022-07-24T01:11:35;17.02;;;8.90;;
39140;SDS011;24875;48.436;10.298;2022-07-24T01:14:02;17.88;;;9.23;;
39140;SDS011;24875;48.436;10.298;2022-07-24T01:16:28;18.92;;;9.90;;
39140;SDS011;24875;48.436;10.298;2022-07-24T01:18:55;16.10;;;8.73;;
39140;SDS011;24875;48.436;10.298;2022-07-24T01:21:23;17.95;;;10.05;;
39140;SDS011;24875;48.436;10.298;2022-07-24T01:23:50;17.30;;;9.13;;
39140;SDS011;24875;48.436;10.298;2022-07-24T01:26:17;20.63;;;9.93;;
39140;SDS011;24875;48.436;10.298;2022-07-24T01:28:43;19.10;;;9.48;;
39140;SDS011;24875;48.436;10.298;2022-07-24T01:31:10;19.30;;;9.73;;
39140;SDS011;24875;48.436;10.298;2022-07-24T01:33:36;16.92;;;9.45;;
39140;SDS011;24875;48.436;10.298;2022-07-24T01:36:03;14.57;;;8.65;;
39140;SDS011;24875;48.436;10.298;2022-07-24T01:38:31;19.98;;;9.95;;
39140;SDS011;24875;48.436;10.298;2022-07-24T01:40:57;15.88;;;9.43;;
39140;SDS011;24875;48.436;10.298;2022-07-24T01:43:23;18.20;;;9.90;;
39140;SDS011;24875;48.436;10.298;2022-07-24T01:45:50;17.67;;;9.20;;
39140;SDS011;24875;48.436;10.298;2022-07-24T01:48:16;17.33;;;9.43;;
39140;SDS011;24875;48.436;10.298;2022-07-24T01:50:43;19.35;;;9.60;;
39140;SDS011;24875;48.436;10.298;2022-07-24T01:53:09;17.25;;;8.32;;
39140;SDS011;24875;48.436;10.298;2022-07-24T01:55:37;17.23;;;8.65;;
39140;SDS011;24875;48.436;10.298;2022-07-24T01:58:04;18.55;;;9.77;;
39140;SDS011;24875;48.436;10.298;2022-07-24T02:00:30;17.55;;;9.52;;
39140;SDS011;24875;48.436;10.298;2022-07-24T02:02:57;16.17;;;9.13;;
39140;SDS011;24875;48.436;10.298;2022-07-24T02:05:23;15.90;;;8.63;;
39140;SDS011;24875;48.436;10.298;2022-07-24T02:07:54;16.27;;;8.73;;
39140;SDS011;24875;48.436;10.298;2022-07-24T02:10:21;14.15;;;8.90;;
39140;SDS011;24875;48.436;10.298;2022-07-24T02:12:50;17.75;;;8.65;;
39140;SDS011;24875;48.436;10.298;2022-07-24T02:15:16;16.63;;;8.60;;
39140;SDS011;24875;48.436;10.298;2022-07-24T02:17:45;21.40;;;9.63;;
39140;SDS011;24875;48.436;10.298;2022-07-24T02:20:12;16.85;;;8.80;;
39140;SDS011;24875;48.436;10.298;2022-07-24T02:22:39;16.73;;;9.13;;
39140;SDS011;24875;48.436;10.298;2022-07-24T02:25:06;14.82;;;8.32;;
39140;SDS011;24875;48.436;10.298;2022-07-24T02:27:33;14.07;;;9.30;;
39140;SDS011;24875;48.436;10.298;2022-07-24T02:30:01;16.48;;;8.68;;
39140;SDS011;24875;48.436;10.298;2022-07-24T02:32:29;18.65;;;9.32;;
39140;SDS011;24875;48.436;10.298;2022-07-24T02:34:55;17.00;;;8.60;;
39140;SDS011;24875;48.436;10.298;2022-07-24T02:37:22;17.88;;;9.40;;
39140;SDS011;24875;48.436;10.298;2022-07-24T02:39:48;15.20;;;9.13;;
39140;SDS011;24875;48.436;10.298;2022-07-24T02:42:15;15.07;;;8.70;;
39140;SDS011;24875;48.436;10.298;2022-07-24T02:44:41;16.42;;;9.52;;
39140;SDS011;24875;48.436;10.298;2022-07-24T02:47:09;16.77;;;9.27;;
39140;SDS011;24875;48.436;10.298;2022-07-24T02:49:36;16.48;;;8.80;;
39140;SDS011;24875;48.436;10.298;2022-07-24T02:52:02;17.10;;;9.73;;
39140;SDS011;24875;48.436;10.298;2022-07-24T02:54:29;20.90;;;9.57;;
39140;SDS011;24875;48.436;10.298;2022-07-24T02:56:56;16.20;;;8.48;;
39140;SDS011;24875;48.436;10.298;2022-07-24T02:59:22;16.33;;;9.20;;
39140;SDS011;24875;48.436;10.298;2022-07-24T03:01:49;19.88;;;9.52;;
39140;SDS011;24875;48.436;10.298;2022-07-24T03:04:17;17.70;;;9.32;;
39140;SDS011;24875;48.436;10.298;2022-07-24T03:06:43;17.38;;;9.60;;
39140;SDS011;24875;48.436;10.298;2022-07-24T03:09:10;18.85;;;9.15;;
39140;SDS011;24875;48.436;10.298;2022-07-24T03:11:36;21.15;;;10.05;;
39140;SDS011;24875;48.436;10.298;2022-07-24T03:14:03;18.67;;;9.00;;
39140;SDS011;24875;48.436;10.298;2022-07-24T03:16:29;15.95;;;9.20;;
39140;SDS011;24875;48.436;10.298;2022-07-24T03:18:56;16.52;;;9.10;;
39140;SDS011;24875;48.436;10.298;2022-07-24T03:21:24;19.98;;;9.50;;
39140;SDS011;24875;48.436;10.298;2022-07-24T03:23:50;15.43;;;9.30;;
39140;SDS011;24875;48.436;10.298;2022-07-24T03:26:17;16.38;;;9.40;;
39140;SDS011;24875;48.436;10.298;2022-07-24T03:28:44;16.63;;;9.30;;
39140;SDS011;24875;48.436;10.298;2022-07-24T03:31:10;17.75;;;9.88;;
39140;SDS011;24875;48.436;10.298;2022-07-24T03:33:36;20.13;;;10.10;;
39140;SDS011;24875;48.436;10.298;2022-07-24T03:36:03;16.38;;;9.15;;
39140;SDS011;24875;48.436;10.298;2022-07-24T03:38:31;14.75;;;8.88;;
39140;SDS011;24875;48.436;10.298;2022-07-24T03:40:58;19.00;;;8.32;;
39140;SDS011;24875;48.436;10.298;2022-07-24T03:43:24;14.10;;;8.15;;
39140;SDS011;24875;48.436;10.298;2022-07-24T03:45:51;14.98;;;8.02;;
39140;SDS011;24875;48.436;10.298;2022-07-24T03:48:17;15.15;;;8.38;;
39140;SDS011;24875;48.436;10.298;2022-07-24T03:50:44;16.92;;;8.27;;
39140;SDS011;24875;48.436;10.298;2022-07-24T03:53:11;15.63;;;8.63;;
39140;SDS011;24875;48.436;10.298;2022-07-24T03:55:39;16.92;;;8.63;;
39140;SDS011;24875;48.436;10.298;2022-07-24T03:58:05;15.57;;;8.43;;
39140;SDS011;24875;48.436;10.298;2022-07-24T04:00:32;15.65;;;8.07;;
39140;SDS011;24875;48.436;10.298;2022-07-24T04:02:58;19.75;;;7.90;;
39140;SDS011;24875;48.436;10.298;2022-07-24T04:05:25;15.10;;;8.13;;
39140;SDS011;24875;48.436;10.298;2022-07-24T04:07:51;14.73;;;7.88;;
39140;SDS011;24875;48.436;10.298;2022-07-24T04:10:18;13.68;;;7.95;;
39140;SDS011;24875;48.436;10.298;2022-07-24T04:12:46;12.38;;;6.75;;
39140;SDS011;24875;48.436;10.298;2022-07-24T04:15:12;12.60;;;7.18;;
39140;SDS011;24875;48.436;10.298;2022-07-24T04:17:39;12.77;;;7.13;;
39140;SDS011;24875;48.436;10.298;2022-07-24T04:20:08;13.63;;;7.38;;
39140;SDS011;24875;48.436;10.298;2022-07-24T04:22:36;16.90;;;7.93;;
39140;SDS011;24875;48.436;10.298;2022-07-24T04:25:03;13.43;;;7.90;;
39140;SDS011;24875;48.436;10.298;2022-07-24T04:27:31;15.38;;;8.43;;
39140;SDS011;24875;48.436;10.298;2022-07-24T04:29:59;15.88;;;8.35;;
39140;SDS011;24875;48.436;10.298;2022-07-24T04:32:26;15.57;;;8.73;;
39140;SDS011;24875;48.436;10.298;2022-07-24T04:34:52;16.05;;;8.80;;
39140;SDS011;24875;48.436;10.298;2022-07-24T04:37:19;16.80;;;9.05;;
39140;SDS011;24875;48.436;10.298;2022-07-24T04:39:45;17.33;;;9.73;;
39140;SDS011;24875;48.436;10.298;2022-07-24T04:42:12;21.35;;;9.40;;
39140;SDS011;24875;48.436;10.298;2022-07-24T04:44:39;18.70;;;8.55;;
39140;SDS011;24875;48.436;10.298;2022-07-24T04:47:07;21.40;;;9.00;;
39140;SDS011;24875;48.436;10.298;2022-07-24T04:49:33;17.40;;;8.70;;
39140;SDS011;24875;48.436;10.298;2022-07-24T04:52:00;16.70;;;8.68;;
39140;SDS011;24875;48.436;10.298;2022-07-24T04:54:26;18.13;;;8.77;;
39140;SDS011;24875;48.436;10.298;2022-07-24T04:56:53;15.50;;;8.20;;
39140;SDS011;24875;48.436;10.298;2022-07-24T04:59:19;17.30;;;9.45;;
39140;SDS011;24875;48.436;10.298;2022-07-24T05:01:46;22.42;;;10.00;;
39140;SDS011;24875;48.436;10.298;2022-07-24T05:04:14;15.98;;;9.43;;
39140;SDS011;24875;48.436;10.298;2022-07-24T05:06:40;18.38;;;9.75;;
39140;SDS011;24875;48.436;10.298;2022-07-24T05:09:07;17.92;;;10.38;;
39140;SDS011;24875;48.436;10.298;2022-07-24T05:11:33;21.50;;;9.35;;
39140;SDS011;24875;48.436;10.298;2022-07-24T05:14:00;19.30;;;10.95;;
39140;SDS011;24875;48.436;10.298;2022-07-24T05:16:26;18.13;;;10.35;;
39140;SDS011;24875;48.436;10.298;2022-07-24T05:18:53;22.55;;;10.77;;
39140;SDS011;24875;48.436;10.298;2022-07-24T05:21:21;17.05;;;9.70;;
39140;SDS011;24875;48.436;10.298;2022-07-24T05:23:47;20.73;;;9.60;;
39140;SDS011;24875;48.436;10.298;2022-07-24T05:26:14;16.65;;;9.70;;
39140;SDS011;24875;48.436;10.298;2022-07-24T05:28:40;19.95;;;10.82;;
39140;SDS011;24875;48.436;10.298;2022-07-24T05:31:07;20.80;;;9.30;;
39140;SDS011;24875;48.436;10.298;2022-07-24T05:33:34;19.05;;;10.73;;
39140;SDS011;24875;48.436;10.298;2022-07-24T05:36:01;21.48;;;10.10;;
39140;SDS011;24875;48.436;10.298;2022-07-24T05:38:29;20.40;;;9.85;;
39140;SDS011;24875;48.436;10.298;2022-07-24T05:40:56;17.92;;;9.95;;
39140;SDS011;24875;48.436;10.298;2022-07-24T05:43:22;20.33;;;10.52;;
39140;SDS011;24875;48.436;10.298;2022-07-24T05:45:49;19.80;;;10.18;;
39140;SDS011;24875;48.436;10.298;2022-07-24T05:48:15;16.92;;;10.00;;
39140;SDS011;24875;48.436;10.298;2022-07-24T05:50:42;20.10;;;10.02;;
39140;SDS011;24875;48.436;10.298;2022-07-24T05:53:08;23.85;;;9.65;;
39140;SDS011;24875;48.436;10.298;2022-07-24T05:55:36;21.25;;;10.55;;
39140;SDS011;24875;48.436;10.298;2022-07-24T05:58:02;21.98;;;11.25;;
39140;SDS011;24875;48.436;10.298;2022-07-24T06:00:29;19.38;;;10.23;;
39140;SDS011;24875;48.436;10.298;2022-07-24T06:02:56;19.70;;;10.55;;
39140;SDS011;24875;48.436;10.298;2022-07-24T06:05:22;22.92;;;10.73;;
39140;SDS011;24875;48.436;10.298;2022-07-24T06:07:49;18.40;;;11.00;;
39140;SDS011;24875;48.436;10.298;2022-07-24T06:10:15;19.75;;;10.68;;
39140;SDS011;24875;48.436;10.298;2022-07-24T06:12:43;20.92;;;10.93;;
39140;SDS011;24875;48.436;10.298;2022-07-24T06:15:10;29.40;;;11.88;;
39140;SDS011;24875;48.436;10.298;2022-07-24T06:17:37;22.33;;;11.00;;
39140;SDS011;24875;48.436;10.298;2022-07-24T06:20:04;22.33;;;10.80;;
39140;SDS011;24875;48.436;10.298;2022-07-24T06:22:31;24.77;;;12.00;;
39140;SDS011;24875;48.436;10.298;2022-07-24T06:24:58;24.95;;;10.77;;
39140;SDS011;24875;48.436;10.298;2022-07-24T06:27:24;20.05;;;11.15;;
39140;SDS011;24875;48.436;10.298;2022-07-24T06:29:52;24.70;;;12.35;;
39140;SDS011;24875;48.436;10.298;2022-07-24T06:32:19;22.45;;;12.00;;
39140;SDS011;24875;48.436;10.298;2022-07-24T06:34:45;23.05;;;12.05;;
39140;SDS011;24875;48.436;10.298;2022-07-24T06:37:11;22.75;;;11.85;;
39140;SDS011;24875;48.436;10.298;2022-07-24T06:39:38;21.42;;;11.57;;
39140;SDS011;24875;48.436;10.298;2022-07-24T06:42:04;21.63;;;11.60;;
39140;SDS011;24875;48.436;10.298;2022-07-24T06:44:31;23.33;;;13.10;;
39140;SDS011;24875;48.436;10.298;2022-07-24T06:47:02;22.15;;;11.70;;
39140;SDS011;24875;48.436;10.298;2022-07-24T06:49:29;24.42;;;11.18;;
39140;SDS011;24875;48.436;10.298;2022-07-24T06:51:55;21.38;;;11.60;;
39140;SDS011;24875;48.436;10.298;2022-07-24T06:54:22;23.17;;;13.27;;
39140;SDS011;24875;48.436;10.298;2022-07-24T06:56:48;24.85;;;11.73;;
39140;SDS011;24875;48.436;10.298;2022-07-24T06:59:15;21.90;;;11.93;;
39140;SDS011;24875;48.436;10.298;2022-07-24T07:01:41;24.23;;;12.93;;
39140;SDS011;24875;48.436;10.298;2022-07-24T07:04:09;24.50;;;12.65;;
39140;SDS011;24875;48.436;10.298;2022-07-24T07:06:35;22.95;;;12.05;;
39140;SDS011;24875;48.436;10.298;2022-07-24T07:09:02;22.60;;;12.07;;
39140;SDS011;24875;48.436;10.298;2022-07-24T07:11:29;20.98;;;11.77;;
39140;SDS011;24875;48.436;10.298;2022-07-24T07:13:55;25.85;;;11.55;;
39140;SDS011;24875;48.436;10.298;2022-07-24T07:16:22;19.52;;;11.23;;
39140;SDS011;24875;48.436;10.298;2022-07-24T07:18:48;20.63;;;11.93;;
39140;SDS011;24875;48.436;10.298;2022-07-24T07:21:16;18.70;;;11.30;;
39140;SDS011;24875;48.436;10.298;2022-07-24T07:23:43;18.20;;;10.30;;
39140;SDS011;24875;48.436;10.298;2022-07-24T07:26:09;16.98;;;10.20;;
39140;SDS011;24875;48.436;10.298;2022-07-24T07:28:36;21.30;;;11.50;;
39140;SDS011;24875;48.436;10.298;2022-07-24T07:31:02;19.10;;;10.88;;
39140;SDS011;24875;48.436;10.298;2022-07-24T07:33:29;16.25;;;10.27;;
39140;SDS011;24875;48.436;10.298;2022-07-24T07:35:55;21.10;;;10.63;;
39140;SDS011;24875;48.436;10.298;2022-07-24T07:38:23;16.80;;;10.45;;
39140;SDS011;24875;48.436;10.298;2022-07-24T07:40:50;21.10;;;10.45;;
39140;SDS011;24875;48.436;10.298;2022-07-24T07:43:16;16.15;;;10.20;;
39140;SDS011;24875;48.436;10.298;2022-07-24T07:45:43;17.33;;;9.93;;
39140;SDS011;24875;48.436;10.298;2022-07-24T07:48:09;17.02;;;9.20;;
39140;SDS011;24875;48.436;10.298;2022-07-24T07:50:36;15.35;;;8.68;;
39140;SDS011;24875;48.436;10.298;2022-07-24T07:53:02;16.25;;;9.75;;
39140;SDS011;24875;48.436;10.298;2022-07-24T07:55:30;18.75;;;9.88;;
39140;SDS011;24875;48.436;10.298;2022-07-24T07:57:57;18.33;;;9.35;;
39140;SDS011;24875;48.436;10.298;2022-07-24T08:00:23;15.05;;;8.98;;
39140;SDS011;24875;48.436;10.298;2022-07-24T08:02:50;17.63;;;9.05;;
39140;SDS011;24875;48.436;10.298;2022-07-24T08:05:16;14.43;;;8.13;;
39140;SDS011;24875;48.436;10.298;2022-07-24T08:07:43;13.30;;;8.20;;
39140;SDS011;24875;48.436;10.298;2022-07-24T08:10:10;14.18;;;8.20;;
39140;SDS011;24875;48.436;10.298;2022-07-24T08:12:38;15.23;;;8.07;;
39140;SDS011;24875;48.436;10.298;2022-07-24T08:15:05;12.60;;;8.05;;
39140;SDS011;24875;48.436;10.298;2022-07-24T08:17:32;14.95;;;8.07;;
39140;SDS011;24875;48.436;10.298;2022-07-24T08:19:59;15.13;;;8.07;;
39140;SDS011;24875;48.436;10.298;2022-07-24T08:22:26;17.73;;;8.65;;
39140;SDS011;24875;48.436;10.298;2022-07-24T08:24:52;12.60;;;7.57;;
39140;SDS011;24875;48.436;10.298;2022-07-24T08:27:18;10.93;;;7.50;;
39140;SDS011;24875;48.436;10.298;2022-07-24T08:29:46;13.40;;;8.30;;
39140;SDS011;24875;48.436;10.298;2022-07-24T08:32:13;13.30;;;7.53;;
39140;SDS011;24875;48.436;10.298;2022-07-24T08:34:39;13.15;;;7.45;;
39140;SDS011;24875;48.436;10.298;2022-07-24T08:37:06;14.75;;;7.05;;
39140;SDS011;24875;48.436;10.298;2022-07-24T08:39:32;10.35;;;7.43;;
39140;SDS011;24875;48.436;10.298;2022-07-24T08:41:59;12.38;;;7.00;;
39140;SDS011;24875;48.436;10.298;2022-07-24T08:44:25;10.68;;;7.03;;
39140;SDS011;24875;48.436;10.298;2022-07-24T08:46:53;19.50;;;7.57;;
39140;SDS011;24875;48.436;10.298;2022-07-24T08:49:20;11.68;;;6.82;;
39140;SDS011;24875;48.436;10.298;2022-07-24T08:51:47;12.30;;;7.00;;
39140;SDS011;24875;48.436;10.298;2022-07-24T08:54:15;11.55;;;6.95;;
39140;SDS011;24875;48.436;10.298;2022-07-24T08:56:41;10.95;;;7.28;;
39140;SDS011;24875;48.436;10.298;2022-07-24T08:59:14;10.40;;;6.78;;
39140;SDS011;24875;48.436;10.298;2022-07-24T09:01:42;9.40;;;6.55;;
39140;SDS011;24875;48.436;10.298;2022-07-24T09:06:58;8.73;;;5.75;;
39140;SDS011;24875;48.436;10.298;2022-07-24T09:09:25;8.90;;;6.30;;
39140;SDS011;24875;48.436;10.298;2022-07-24T09:11:58;12.90;;;6.50;;
39140;SDS011;24875;48.436;10.298;2022-07-24T09:14:29;11.23;;;6.60;;
39140;SDS011;24875;48.436;10.298;2022-07-24T09:17:00;9.75;;;6.88;;
39140;SDS011;24875;48.436;10.298;2022-07-24T09:19:28;11.68;;;6.93;;
39140;SDS011;24875;48.436;10.298;2022-07-24T09:21:56;8.98;;;6.45;;
39140;SDS011;24875;48.436;10.298;2022-07-24T09:24:22;10.90;;;6.65;;
39140;SDS011;24875;48.436;10.298;2022-07-24T09:26:49;9.13;;;6.57;;
39140;SDS011;24875;48.436;10.298;2022-07-24T09:29:18;10.45;;;6.43;;
39140;SDS011;24875;48.436;10.298;2022-07-24T09:31:50;16.15;;;6.93;;
39140;SDS011;24875;48.436;10.298;2022-07-24T09:34:17;11.00;;;6.70;;
39140;SDS011;24875;48.436;10.298;2022-07-24T09:36:50;9.70;;;6.47;;
39140;SDS011;24875;48.436;10.298;2022-07-24T09:39:23;10.98;;;6.95;;
39140;SDS011;24875;48.436;10.298;2022-07-24T09:41:50;10.02;;;6.72;;
39140;SDS011;24875;48.436;10.298;2022-07-24T09:44:18;11.00;;;6.45;;
39140;SDS011;24875;48.436;10.298;2022-07-24T09:46:45;11.55;;;6.90;;
39140;SDS011;24875;48.436;10.298;2022-07-24T09:49:18;9.77;;;6.55;;
39140;SDS011;24875;48.436;10.298;2022-07-24T09:51:45;9.45;;;6.50;;
39140;SDS011;24875;48.436;10.298;2022-07-24T09:54:36;10.25;;;6.07;;
39140;SDS011;24875;48.436;10.298;2022-07-24T09:57:20;10.25;;;6.47;;
39140;SDS011;24875;48.436;10.298;2022-07-24T09:59:49;17.00;;;6.82;;
39140;SDS011;24875;48.436;10.298;2022-07-24T10:02:17;8.63;;;5.93;;
39140;SDS011;24875;48.436;10.298;2022-07-24T10:04:46;9.77;;;5.97;;
39140;SDS011;24875;48.436;10.298;2022-07-24T10:07:15;9.43;;;6.20;;
39140;SDS011;24875;48.436;10.298;2022-07-24T10:09:45;9.60;;;6.47;;
39140;SDS011;24875;48.436;10.298;2022-07-24T10:12:13;8.48;;;6.18;;
39140;SDS011;24875;48.436;10.298;2022-07-24T10:14:42;10.88;;;6.22;;
39140;SDS011;24875;48.436;10.298;2022-07-24T10:17:10;11.43;;;6.07;;
39140;SDS011;24875;48.436;10.298;2022-07-24T10:19:39;9.45;;;6.13;;
39140;SDS011;24875;48.436;10.298;2022-07-24T10:22:09;10.48;;;6.18;;
39140;SDS011;24875;48.436;10.298;2022-07-24T10:27:32;9.00;;;6.10;;
39140;SDS011;24875;48.436;10.298;2022-07-24T10:30:03;9.90;;;6.30;;
39140;SDS011;24875;48.436;10.298;2022-07-24T10:32:31;8.38;;;6.10;;
39140;SDS011;24875;48.436;10.298;2022-07-24T10:35:04;9.18;;;6.22;;
39140;SDS011;24875;48.436;10.298;2022-07-24T10:37:38;7.80;;;5.25;;
39140;SDS011;24875;48.436;10.298;2022-07-24T10:40:15;11.27;;;5.85;;
39140;SDS011;24875;48.436;10.298;2022-07-24T10:45:40;9.13;;;6.18;;
39140;SDS011;24875;48.436;10.298;2022-07-24T10:51:08;8.75;;;6.07;;
39140;SDS011;24875;48.436;10.298;2022-07-24T10:53:46;8.93;;;6.20;;
39140;SDS011;24875;48.436;10.298;2022-07-24T10:56:18;9.32;;;6.10;;
39140;SDS011;24875;48.436;10.298;2022-07-24T10:58:54;8.75;;;6.10;;
39140;SDS011;24875;48.436;10.298;2022-07-24T11:01:30;10.48;;;6.38;;
39140;SDS011;24875;48.436;10.298;2022-07-24T11:03:58;9.25;;;6.57;;
39140;SDS011;24875;48.436;10.298;2022-07-24T11:06:39;12.88;;;6.40;;
39140;SDS011;24875;48.436;10.298;2022-07-24T11:09:07;8.32;;;6.13;;
39140;SDS011;24875;48.436;10.298;2022-07-24T11:11:35;11.10;;;6.30;;
39140;SDS011;24875;48.436;10.298;2022-07-24T11:14:06;8.15;;;6.05;;
39140;SDS011;24875;48.436;10.298;2022-07-24T11:16:33;10.38;;;5.78;;
39140;SDS011;24875;48.436;10.298;2022-07-24T11:22:09;14.18;;;6.00;;
39140;SDS011;24875;48.436;10.298;2022-07-24T11:24:40;9.18;;;6.10;;
39140;SDS011;24875;48.436;10.298;2022-07-24T11:27:13;9.05;;;6.15;;
39140;SDS011;24875;48.436;10.298;2022-07-24T11:29:43;8.93;;;6.18;;
39140;SDS011;24875;48.436;10.298;2022-07-24T11:32:10;9.75;;;6.47;;
39140;SDS011;24875;48.436;10.298;2022-07-24T11:34:42;8.75;;;6.07;;
39140;SDS011;24875;48.436;10.298;2022-07-24T11:37:10;11.80;;;6.43;;
39140;SDS011;24875;48.436;10.298;2022-07-24T11:39:37;9.45;;;6.32;;
39140;SDS011;24875;48.436;10.298;2022-07-24T11:42:06;10.00;;;6.10;;
39140;SDS011;24875;48.436;10.298;2022-07-24T11:44:35;9.50;;;6.03;;
39140;SDS011;24875;48.436;10.298;2022-07-24T11:47:05;9.00;;;6.20;;
39140;SDS011;24875;48.436;10.298;2022-07-24T11:49:38;8.68;;;5.60;;
39140;SDS011;24875;48.436;10.298;2022-07-24T11:52:06;9.95;;;5.90;;
39140;SDS011;24875;48.436;10.298;2022-07-24T11:54:33;9.13;;;5.65;;
39140;SDS011;24875;48.436;10.298;2022-07-24T11:56:59;8.60;;;5.78;;
39140;SDS011;24875;48.436;10.298;2022-07-24T11:59:29;10.50;;;6.25;;
39140;SDS011;24875;48.436;10.298;2022-07-24T12:02:03;11.75;;;5.60;;
39140;SDS011;24875;48.436;10.298;2022-07-24T12:04:31;9.05;;;5.50;;
39140;SDS011;24875;48.436;10.298;2022-07-24T12:06:57;7.25;;;5.47;;
39140;SDS011;24875;48.436;10.298;2022-07-24T12:09:24;6.70;;;5.30;;
39140;SDS011;24875;48.436;10.298;2022-07-24T12:11:50;11.43;;;5.20;;
39140;SDS011;24875;48.436;10.298;2022-07-24T12:14:18;7.50;;;4.95;;
39140;SDS011;24875;48.436;10.298;2022-07-24T12:16:50;8.45;;;5.00;;
39140;SDS011;24875;48.436;10.298;2022-07-24T12:19:20;6.40;;;5.05;;
39140;SDS011;24875;48.436;10.298;2022-07-24T12:21:47;6.65;;;5.13;;
39140;SDS011;24875;48.436;10.298;2022-07-24T12:24:15;6.65;;;5.15;;
39140;SDS011;24875;48.436;10.298;2022-07-24T12:26:49;7.45;;;5.18;;
39140;SDS011;24875;48.436;10.298;2022-07-24T12:29:16;10.25;;;5.07;;
39140;SDS011;24875;48.436;10.298;2022-07-24T12:31:43;8.07;;;5.15;;
39140;SDS011;24875;48.436;10.298;2022-07-24T12:34:10;6.15;;;4.82;;
39140;SDS011;24875;48.436;10.298;2022-07-24T12:36:37;9.15;;;5.28;;
39140;SDS011;24875;48.436;10.298;2022-07-24T12:39:05;6.55;;;4.90;;
39140;SDS011;24875;48.436;10.298;2022-07-24T12:41:40;8.55;;;5.00;;
39140;SDS011;24875;48.436;10.298;2022-07-24T12:44:10;8.10;;;5.05;;
39140;SDS011;24875;48.436;10.298;2022-07-24T12:46:37;7.35;;;4.88;;
39140;SDS011;24875;48.436;10.298;2022-07-24T12:49:06;6.97;;;5.10;;
39140;SDS011;24875;48.436;10.298;2022-07-24T12:51:50;6.63;;;4.90;;
39140;SDS011;24875;48.436;10.298;2022-07-24T12:54:18;7.63;;;4.82;;
39140;SDS011;24875;48.436;10.298;2022-07-24T12:56:47;9.75;;;5.25;;
39140;SDS011;24875;48.436;10.298;2022-07-24T12:59:22;9.15;;;5.20;;
39140;SDS011;24875;48.436;10.298;2022-07-24T13:01:50;9.77;;;5.00;;
39140;SDS011;24875;48.436;10.298;2022-07-24T13:04:18;6.75;;;5.05;;
39140;SDS011;24875;48.436;10.298;2022-07-24T13:06:46;7.20;;;5.18;;
39140;SDS011;24875;48.436;10.298;2022-07-24T13:09:16;6.90;;;5.10;;
39140;SDS011;24875;48.436;10.298;2022-07-24T13:11:44;7.00;;;5.13;;
39140;SDS011;24875;48.436;10.298;2022-07-24T13:14:11;6.53;;;5.45;;
39140;SDS011;24875;48.436;10.298;2022-07-24T13:16:39;8.73;;;5.07;;
39140;SDS011;24875;48.436;10.298;2022-07-24T13:19:08;8.52;;;4.90;;
39140;SDS011;24875;48.436;10.298;2022-07-24T13:21:35;7.00;;;5.00;;
39140;SDS011;24875;48.436;10.298;2022-07-24T13:24:03;9.60;;;5.28;;
39140;SDS011;24875;48.436;10.298;2022-07-24T13:26:31;8.55;;;5.00;;
39140;SDS011;24875;48.436;10.298;2022-07-24T13:28:58;7.13;;;5.00;;
39140;SDS011;24875;48.436;10.298;2022-07-24T13:31:25;7.07;;;4.93;;
39140;SDS011;24875;48.436;10.298;2022-07-24T13:33:51;5.95;;;4.60;;
39140;SDS011;24875;48.436;10.298;2022-07-24T13:36:18;9.23;;;5.13;;
39140;SDS011;24875;48.436;10.298;2022-07-24T13:38:45;7.57;;;5.25;;
39140;SDS011;24875;48.436;10.298;2022-07-24T13:41:13;7.47;;;4.70;;
39140;SDS011;24875;48.436;10.298;2022-07-24T13:43:43;7.40;;;4.80;;
39140;SDS011;24875;48.436;10.298;2022-07-24T13:46:09;8.32;;;4.88;;
39140;SDS011;24875;48.436;10.298;2022-07-24T13:48:36;10.68;;;4.88;;
39140;SDS011;24875;48.436;10.298;2022-07-24T13:51:02;7.93;;;4.75;;
39140;SDS011;24875;48.436;10.298;2022-07-24T13:53:29;9.98;;;5.28;;
39140;SDS011;24875;48.436;10.298;2022-07-24T13:55:55;8.38;;;4.65;;
39140;SDS011;24875;48.436;10.298;2022-07-24T13:58:22;11.05;;;5.18;;
39140;SDS011;24875;48.436;10.298;2022-07-24T14:00:50;5.53;;;4.50;;
39140;SDS011;24875;48.436;10.298;2022-07-24T14:03:16;6.82;;;4.55;;
39140;SDS011;24875;48.436;10.298;2022-07-24T14:05:43;6.70;;;5.00;;
39140;SDS011;24875;48.436;10.298;2022-07-24T14:08:09;6.15;;;3.97;;
39140;SDS011;24875;48.436;10.298;2022-07-24T14:10:36;6.38;;;3.65;;
39140;SDS011;24875;48.436;10.298;2022-07-24T14:13:02;6.07;;;3.60;;
39140;SDS011;24875;48.436;10.298;2022-07-24T14:15:29;5.15;;;4.00;;
39140;SDS011;24875;48.436;10.298;2022-07-24T14:17:57;7.97;;;3.90;;
39140;SDS011;24875;48.436;10.298;2022-07-24T14:20:24;7.55;;;3.83;;
39140;SDS011;24875;48.436;10.298;2022-07-24T14:22:50;5.05;;;4.03;;
39140;SDS011;24875;48.436;10.298;2022-07-24T14:25:16;4.68;;;3.70;;
39140;SDS011;24875;48.436;10.298;2022-07-24T14:27:43;4.47;;;3.72;;
39140;SDS011;24875;48.436;10.298;2022-07-24T14:30:10;5.57;;;4.07;;
39140;SDS011;24875;48.436;10.298;2022-07-24T14:32:37;5.75;;;3.90;;
39140;SDS011;24875;48.436;10.298;2022-07-24T14:35:06;5.80;;;3.40;;
39140;SDS011;24875;48.436;10.298;2022-07-24T14:37:34;5.47;;;3.97;;
39140;SDS011;24875;48.436;10.298;2022-07-24T14:40:00;4.68;;;3.88;;